Time;durP1;ratioP1;P1;durP2;ratioP2;P2;SDS_P1;SDS_P2;PMS_P1;PMS_P2;Temp;Humidity;BMP_temperature;BMP_pressure;BME280_temperature;BME280_humidity;BME280_pressure;Samples;Min_cycle;Max_cycle;Signal;HPM_P1;HPM_P2
2022/03/09 00:00:43;;;;;;;5.57;3.25;;;;;;;-6.52;52.46;99938.19;4866747;29;20120;-69
2022/03/09 00:03:08;;;;;;;3.05;2.25;;;;;;;-6.49;52.44;99937.34;4864227;29;20048;-74
2022/03/09 00:05:33;;;;;;;3.33;2.58;;;;;;;-6.50;52.16;99941.66;4868019;29;20060;-71
2022/03/09 00:07:58;;;;;;;4.30;3.10;;;;;;;-6.57;52.51;99944.25;4871916;29;20075;-75
2022/03/09 00:10:23;;;;;;;5.13;3.80;;;;;;;-6.61;52.15;99941.63;4872944;29;20057;-73
2022/03/09 00:12:49;;;;;;;5.82;3.38;;;;;;;-6.59;51.62;99939.06;4870991;29;20048;-74
2022/03/09 00:15:13;;;;;;;7.00;3.13;;;;;;;-6.57;52.44;99952.88;4872546;29;20052;-74
2022/03/09 00:17:38;;;;;;;5.20;3.25;;;;;;;-6.60;51.45;99945.09;4870243;29;20052;-73
2022/03/09 00:20:04;;;;;;;6.05;3.15;;;;;;;-6.40;51.30;99940.81;4867855;29;20116;-71
2022/03/09 00:22:29;;;;;;;10.20;4.63;;;;;;;-6.58;51.20;99943.38;4867153;29;20048;-74
2022/03/09 00:24:54;;;;;;;7.03;3.38;;;;;;;-6.72;51.25;99953.72;4867215;29;20052;-75
2022/03/09 00:27:18;;;;;;;5.55;3.85;;;;;;;-6.75;51.10;99947.63;4876888;29;20040;-75
2022/03/09 00:29:43;;;;;;;8.45;3.25;;;;;;;-6.77;51.57;99958.00;4885570;29;20139;-75
2022/03/09 00:32:08;;;;;;;9.52;3.08;;;;;;;-6.75;52.12;99958.00;4885599;29;20059;-77
2022/03/09 00:34:34;;;;;;;8.85;4.18;;;;;;;-6.75;51.88;99951.09;4884288;29;20459;-76
2022/03/09 00:36:59;;;;;;;6.15;3.78;;;;;;;-6.74;51.29;99950.25;4868462;29;20455;-78
2022/03/09 00:39:24;;;;;;;5.25;2.97;;;;;;;-6.75;51.97;99952.81;4885681;29;20052;-79
2022/03/09 00:41:48;;;;;;;4.32;2.83;;;;;;;-6.74;51.43;99958.00;4883708;29;20143;-75
2022/03/09 00:44:13;;;;;;;5.85;3.28;;;;;;;-6.75;51.81;99958.00;4883006;29;20048;-79
2022/03/09 00:46:38;;;;;;;7.53;3.40;;;;;;;-6.73;51.58;99958.88;4885330;29;20392;-79
2022/03/09 00:49:03;;;;;;;3.50;2.58;;;;;;;-6.75;51.29;99960.59;4882742;29;20051;-77
2022/03/09 00:51:28;;;;;;;4.03;2.80;;;;;;;-6.76;51.26;99959.72;4885606;29;20506;-75
2022/03/09 00:53:53;;;;;;;4.72;3.40;;;;;;;-6.77;51.89;99967.53;4882737;29;20095;-78
2022/03/09 00:56:18;;;;;;;7.40;3.60;;;;;;;-6.77;52.05;99951.97;4898065;29;20419;-68
2022/03/09 00:58:43;;;;;;;4.25;2.53;;;;;;;-6.77;51.78;99962.34;4883586;29;20047;-73
2022/03/09 01:01:11;;;;;;;5.45;2.97;;;;;;;-6.80;51.64;99962.31;4866295;29;20039;-73
2022/03/09 01:03:36;;;;;;;3.92;2.78;;;;;;;-6.81;51.76;99968.38;4866982;29;20084;-77
2022/03/09 01:06:00;;;;;;;5.63;2.65;;;;;;;-6.85;51.49;99959.72;4883135;29;20048;-77
2022/03/09 01:08:25;;;;;;;5.30;3.40;;;;;;;-6.86;50.95;99962.28;4882724;29;20036;-68
2022/03/09 01:10:50;;;;;;;3.20;2.25;;;;;;;-6.88;51.28;99964.88;4882766;29;20393;-71
2022/03/09 01:13:15;;;;;;;5.50;3.15;;;;;;;-6.90;51.22;99976.13;4882147;29;20515;-70
2022/03/09 01:15:40;;;;;;;3.63;2.80;;;;;;;-6.96;51.05;99971.75;4881208;29;20877;-78
2022/03/09 01:18:06;;;;;;;7.55;4.57;;;;;;;-6.99;51.59;99970.00;4883919;29;20503;-74
2022/03/09 01:20:31;;;;;;;3.90;2.65;;;;;;;-7.04;51.26;99989.88;4865106;29;20396;-67
2022/03/09 01:22:55;;;;;;;5.20;3.97;;;;;;;-7.09;51.04;99980.34;4881701;29;20092;-72
2022/03/09 01:25:20;;;;;;;2.67;2.35;;;;;;;-7.13;51.34;99979.47;4848125;29;20075;-73
2022/03/09 01:27:45;;;;;;;5.88;3.03;;;;;;;-7.17;51.14;99982.03;4880326;29;20054;-72
2022/03/09 01:30:10;;;;;;;5.60;2.97;;;;;;;-7.18;51.76;99982.88;4861949;29;20139;-72
2022/03/09 01:32:35;;;;;;;5.68;3.78;;;;;;;-7.24;51.24;99995.81;4880031;29;20036;-72
2022/03/09 01:35:00;;;;;;;4.63;2.83;;;;;;;-7.29;51.05;99997.50;4879910;29;20155;-74
2022/03/09 01:37:25;;;;;;;4.03;2.85;;;;;;;-7.35;51.10;99994.03;4881527;29;20502;-73
2022/03/09 01:39:49;;;;;;;5.60;3.60;;;;;;;-7.39;51.29;99988.81;4878892;29;20079;-73
2022/03/09 01:42:14;;;;;;;4.68;2.78;;;;;;;-7.44;51.68;99998.28;4878205;29;20503;-74
2022/03/09 01:44:39;;;;;;;8.57;4.88;;;;;;;-7.50;51.77;99996.53;4864469;29;20044;-76
2022/03/09 01:47:04;;;;;;;6.45;3.38;;;;;;;-7.54;51.67;99997.34;4865574;29;20070;-75
2022/03/09 01:49:30;;;;;;;5.50;3.00;;;;;;;-7.58;51.52;100005.97;4882149;29;20392;-75
2022/03/09 01:51:57;;;;;;;5.18;3.17;;;;;;;-7.65;51.50;100006.75;4878264;29;20039;-75
2022/03/09 01:54:22;;;;;;;5.78;3.35;;;;;;;-7.77;51.27;100004.94;4880388;29;20044;-76
2022/03/09 01:56:48;;;;;;;5.07;3.05;;;;;;;-7.84;52.19;100003.19;4880499;29;20099;-73
2022/03/09 01:59:14;;;;;;;5.28;2.80;;;;;;;-7.92;51.49;100004.84;4861979;29;20048;-75
2022/03/09 02:01:39;;;;;;;5.95;3.05;;;;;;;-8.00;51.45;100008.19;4847832;29;20496;-72
2022/03/09 02:04:05;;;;;;;3.42;2.58;;;;;;;-8.08;51.85;100010.72;4887300;29;21009;-71
2022/03/09 02:06:34;;;;;;;6.30;3.30;;;;;;;-8.15;51.65;100011.53;4880452;29;20164;-72
2022/03/09 02:11:44;;;;;;;3.13;2.50;;;;;;;-8.30;52.47;100026.91;4879092;29;20055;-71
2022/03/09 02:14:36;;;;;;;6.03;3.25;;;;;;;-8.33;51.98;100022.59;4863202;29;20042;-73
2022/03/09 02:17:08;;;;;;;6.25;3.10;;;;;;;-8.43;52.48;100026.81;4877342;29;20044;-73
2022/03/09 02:19:34;;;;;;;4.97;3.00;;;;;;;-8.50;52.46;100026.72;4863163;29;20111;-70
2022/03/09 02:22:24;;;;;;;3.47;2.45;;;;;;;-8.54;52.16;100033.56;4878773;29;20054;-72
2022/03/09 02:24:52;;;;;;;4.35;2.92;;;;;;;-8.60;52.30;100041.28;4853172;29;20058;-73
2022/03/09 02:27:22;;;;;;;5.55;2.97;;;;;;;-8.64;52.65;100039.50;4878523;29;20087;-71
2022/03/09 02:29:53;;;;;;;2.92;2.15;;;;;;;-8.68;52.25;100045.47;4881771;29;20067;-78
2022/03/09 02:32:18;;;;;;;6.18;3.13;;;;;;;-8.70;52.89;100042.00;4897315;29;20518;-78
2022/03/09 02:34:43;;;;;;;3.08;2.08;;;;;;;-8.73;52.51;100049.72;4879936;29;20130;-78
2022/03/09 02:37:08;;;;;;;6.47;3.15;;;;;;;-8.75;52.53;100054.00;4865602;29;20215;-77
2022/03/09 02:39:33;;;;;;;7.07;3.20;;;;;;;-8.76;52.46;100053.97;4866543;29;20039;-77
2022/03/09 02:41:57;;;;;;;4.60;2.42;;;;;;;-8.78;52.40;100056.53;4850785;29;20040;-75
2022/03/09 02:44:22;;;;;;;3.17;2.22;;;;;;;-8.81;52.33;100057.41;4862631;29;20127;-73
2022/03/09 02:46:47;;;;;;;7.57;2.80;;;;;;;-8.84;53.23;100061.63;4879450;29;20032;-72
2022/03/09 02:49:12;;;;;;;4.20;3.15;;;;;;;-8.87;52.76;100070.22;4884010;29;20043;-77
2022/03/09 02:51:37;;;;;;;5.53;3.10;;;;;;;-8.90;52.42;100057.25;4864747;29;20039;-77
2022/03/09 02:54:02;;;;;;;4.90;2.50;;;;;;;-8.93;53.18;100062.41;4880716;29;20120;-76
2022/03/09 02:56:27;;;;;;;4.22;3.35;;;;;;;-8.91;52.43;100064.97;4879834;29;20127;-71
2022/03/09 02:58:52;;;;;;;4.68;2.97;;;;;;;-8.96;52.50;100070.09;4887499;29;20040;-75
2022/03/09 03:01:17;;;;;;;6.38;3.10;;;;;;;-8.96;53.12;100070.09;4862737;29;20040;-75
2022/03/09 03:03:43;;;;;;;4.65;2.83;;;;;;;-8.98;53.30;100070.91;4879470;29;20452;-76
2022/03/09 03:06:10;;;;;;;9.07;2.83;;;;;;;-9.01;52.74;100065.69;4879386;29;20044;-76
2022/03/09 03:08:37;;;;;;;5.72;2.92;;;;;;;-9.07;52.76;100063.06;4878829;29;20051;-78
2022/03/09 03:11:02;;;;;;;5.40;2.53;;;;;;;-9.11;52.66;100072.47;4910350;29;20056;-80
2022/03/09 03:13:28;;;;;;;6.35;3.33;;;;;;;-9.12;53.01;100082.75;4879740;29;20036;-77
2022/03/09 03:15:53;;;;;;;4.30;3.00;;;;;;;-9.15;53.20;100069.84;4880244;29;20055;-74
2022/03/09 03:18:18;;;;;;;5.25;3.50;;;;;;;-9.17;53.44;100078.41;4879164;29;20044;-75
2022/03/09 03:20:42;;;;;;;4.45;2.90;;;;;;;-9.21;53.15;100074.03;4878697;29;20122;-76
2022/03/09 03:23:07;;;;;;;4.43;3.00;;;;;;;-9.22;52.85;100082.63;4881133;29;20087;-77
2022/03/09 03:25:32;;;;;;;4.47;2.80;;;;;;;-9.25;53.06;100092.91;4879892;29;20108;-78
2022/03/09 03:27:56;;;;;;;9.75;5.05;;;;;;;-9.27;53.66;100083.44;4881640;29;20055;-77
2022/03/09 03:30:21;;;;;;;5.90;3.70;;;;;;;-9.30;53.15;100089.41;4881132;29;20063;-80
2022/03/09 03:32:46;;;;;;;4.68;2.85;;;;;;;-9.32;53.52;100090.22;4863299;29;20043;-76
2022/03/09 03:35:10;;;;;;;6.43;3.80;;;;;;;-9.38;53.02;100096.19;4878339;29;20423;-77
2022/03/09 03:37:35;;;;;;;4.07;2.90;;;;;;;-9.39;53.26;100089.28;4877948;29;20535;-78
2022/03/09 03:40:00;;;;;;;7.10;3.72;;;;;;;-9.42;53.56;100098.69;4863869;29;20039;-78
2022/03/09 03:42:25;;;;;;;5.95;3.50;;;;;;;-9.46;53.32;100094.28;4880569;29;20411;-77
2022/03/09 03:44:49;;;;;;;13.38;3.70;;;;;;;-9.48;53.65;100099.47;4880170;29;20127;-77
2022/03/09 03:47:15;;;;;;;6.10;3.10;;;;;;;-9.50;54.04;100097.69;4880801;29;20040;-78
2022/03/09 03:49:39;;;;;;;7.05;3.42;;;;;;;-9.51;53.93;100098.53;4879925;29;20059;-77
2022/03/09 03:52:04;;;;;;;5.38;3.00;;;;;;;-9.51;53.42;100101.13;4879972;29;20415;-78
2022/03/09 03:54:29;;;;;;;3.10;2.50;;;;;;;-9.56;53.36;100096.75;4880243;29;20044;-78
2022/03/09 03:56:54;;;;;;;5.70;3.45;;;;;;;-9.57;53.65;100092.41;4880372;29;20048;-78
2022/03/09 03:59:18;;;;;;;5.00;3.35;;;;;;;-9.60;53.99;100104.44;4880341;29;20373;-78
2022/03/09 04:01:43;;;;;;;5.43;3.47;;;;;;;-9.64;53.47;100105.22;4878929;29;20055;-78
2022/03/09 04:04:09;;;;;;;6.80;3.17;;;;;;;-9.66;53.47;100099.16;4879161;29;20051;-78
2022/03/09 04:06:33;;;;;;;5.82;3.15;;;;;;;-9.66;53.87;100114.63;4880536;29;20050;-78
2022/03/09 04:08:58;;;;;;;5.85;3.65;;;;;;;-9.70;53.41;100118.84;4879137;29;20059;-78
2022/03/09 04:11:23;;;;;;;4.65;3.38;;;;;;;-9.70;53.59;100112.81;4878511;29;20142;-79
2022/03/09 04:13:48;;;;;;;5.65;3.05;;;;;;;-9.71;53.75;100109.41;4878464;29;20115;-79
2022/03/09 04:16:12;;;;;;;6.45;4.03;;;;;;;-9.72;53.91;100118.00;4879841;29;20055;-77
2022/03/09 04:18:37;;;;;;;5.13;3.25;;;;;;;-9.72;53.81;100124.84;4878956;29;20048;-77
2022/03/09 04:21:02;;;;;;;6.68;3.70;;;;;;;-9.72;53.33;100127.44;4878562;29;20051;-77
2022/03/09 04:23:27;;;;;;;4.15;3.28;;;;;;;-9.74;53.62;100127.41;4879878;29;20048;-79
2022/03/09 04:25:52;;;;;;;7.50;3.83;;;;;;;-9.71;53.18;100142.06;4882196;29;20431;-82
2022/03/09 04:28:16;;;;;;;9.43;3.28;;;;;;;-9.70;53.35;100146.38;4872220;29;20052;-75
2022/03/09 04:30:41;;;;;;;8.05;3.72;;;;;;;-9.70;53.31;100143.78;4878947;29;20108;-74
2022/03/09 04:33:06;;;;;;;8.70;3.67;;;;;;;-9.69;53.21;100169.63;4879208;29;20052;-76
2022/03/09 04:35:30;;;;;;;7.07;3.65;;;;;;;-9.71;52.95;100149.81;4863272;29;20095;-75
2022/03/09 04:37:55;;;;;;;4.72;3.13;;;;;;;-9.68;52.89;100162.75;4862840;29;20085;-74
2022/03/09 04:40:20;;;;;;;7.93;3.10;;;;;;;-9.69;53.26;100156.72;4863211;29;20123;-74
2022/03/09 04:42:45;;;;;;;6.20;3.78;;;;;;;-9.66;53.39;100164.53;4862920;29;20068;-74
2022/03/09 04:45:10;;;;;;;7.28;3.72;;;;;;;-9.57;53.39;100163.81;4862610;29;20128;-74
2022/03/09 04:47:35;;;;;;;5.82;3.38;;;;;;;-9.50;52.89;100163.09;4894825;29;20064;-73
2022/03/09 04:50:02;;;;;;;5.93;3.40;;;;;;;-9.39;53.03;100169.28;4862530;29;20040;-75
2022/03/09 04:52:28;;;;;;;9.98;3.50;;;;;;;-9.27;52.58;100166.91;4862825;29;20052;-74
2022/03/09 04:54:52;;;;;;;7.75;3.63;;;;;;;-9.17;52.85;100160.19;4878612;29;20045;-74
2022/03/09 04:57:17;;;;;;;7.25;3.22;;;;;;;-9.06;52.65;100162.94;4862892;29;20492;-74
2022/03/09 04:59:42;;;;;;;5.72;3.60;;;;;;;-8.97;51.68;100176.84;4863968;29;20051;-74
2022/03/09 05:02:07;;;;;;;7.25;3.60;;;;;;;-8.90;51.43;100173.50;4878018;29;20052;-74
2022/03/09 05:04:32;;;;;;;6.25;3.22;;;;;;;-8.87;52.45;100163.22;4878088;29;20072;-73
2022/03/09 05:06:56;;;;;;;8.23;4.03;;;;;;;-8.86;51.75;100166.66;4846320;29;20067;-73
2022/03/09 05:09:21;;;;;;;7.85;3.53;;;;;;;-8.87;51.66;100170.09;4877714;29;20077;-75
2022/03/09 05:11:46;;;;;;;6.80;3.80;;;;;;;-8.86;51.44;100169.25;4878136;29;20081;-73
2022/03/09 05:14:11;;;;;;;7.30;3.97;;;;;;;-8.77;51.08;100173.69;4878558;29;20048;-74
2022/03/09 05:16:35;;;;;;;6.32;3.67;;;;;;;-8.54;51.79;100180.91;4863023;29;20040;-75
2022/03/09 05:19:00;;;;;;;8.93;4.43;;;;;;;-8.32;50.57;100178.59;4862709;29;20040;-74
2022/03/09 05:21:25;;;;;;;7.82;3.83;;;;;;;-8.11;51.44;100182.28;4878347;29;20407;-73
2022/03/09 05:23:50;;;;;;;14.05;7.80;;;;;;;-7.84;50.58;100173.97;4846422;29;20465;-74
2022/03/09 05:26:15;;;;;;;8.43;4.32;;;;;;;-7.38;49.36;100189.97;4861847;29;20045;-73
2022/03/09 05:28:41;;;;;;;7.03;3.92;;;;;;;-6.87;49.67;100194.69;4862169;29;20049;-73
2022/03/09 05:31:05;;;;;;;7.80;4.15;;;;;;;-6.32;48.36;100198.47;4863138;29;20063;-74
2022/03/09 05:33:32;;;;;;;5.60;3.70;;;;;;;-5.70;47.58;100197.84;4863311;29;20044;-73
2022/03/09 05:35:57;;;;;;;12.50;4.13;;;;;;;-5.12;46.71;100193.59;4861353;29;20047;-74
2022/03/09 05:38:21;;;;;;;7.30;4.35;;;;;;;-4.65;45.56;100186.66;4877535;29;20508;-73
2022/03/09 05:40:46;;;;;;;5.28;3.60;;;;;;;-4.14;44.84;100191.72;4861948;29;20040;-74
2022/03/09 05:43:11;;;;;;;7.72;4.57;;;;;;;-3.63;43.20;100181.94;4877725;29;20364;-74
2022/03/09 05:45:36;;;;;;;11.38;4.03;;;;;;;-3.27;42.49;100188.63;4877570;29;20048;-73
2022/03/09 05:48:00;;;;;;;10.30;4.38;;;;;;;-2.95;41.61;100194.50;4893120;29;20135;-74
2022/03/09 05:50:25;;;;;;;6.20;3.45;;;;;;;-2.66;41.06;100191.63;4862907;29;20070;-73
2022/03/09 05:52:51;;;;;;;7.88;4.35;;;;;;;-2.27;40.72;100199.97;4877363;29;20373;-77
2022/03/09 05:55:16;;;;;;;7.38;4.40;;;;;;;-1.87;39.87;100206.44;4848051;29;20048;-78
2022/03/09 05:57:41;;;;;;;7.43;3.83;;;;;;;-1.55;39.28;100210.38;4855922;29;20056;-77
2022/03/09 06:00:07;;;;;;;7.45;3.80;;;;;;;-1.33;39.35;100193.50;4872292;29;20044;-78
2022/03/09 06:02:38;;;;;;;9.00;4.32;;;;;;;-0.90;38.15;100204.16;4853942;29;20048;-78
2022/03/09 06:05:03;;;;;;;11.95;4.25;;;;;;;-0.37;37.84;100195.41;4883323;29;20119;-77
2022/03/09 06:07:30;;;;;;;7.57;4.47;;;;;;;-0.01;37.04;100191.22;4884909;29;20040;-78
2022/03/09 06:09:57;;;;;;;6.28;4.07;;;;;;;0.36;36.26;100188.69;4872127;29;20044;-78
2022/03/09 06:12:22;;;;;;;7.32;4.63;;;;;;;0.84;35.63;100200.75;4887480;29;20060;-75
2022/03/09 06:14:47;;;;;;;12.93;7.38;;;;;;;1.33;35.15;100198.69;4870845;29;20095;-75
2022/03/09 06:17:14;;;;;;;7.72;4.88;;;;;;;1.66;34.65;100211.88;4870301;29;20182;-73
2022/03/09 06:19:39;;;;;;;8.07;5.18;;;;;;;1.73;34.17;100214.28;4870270;29;20076;-74
2022/03/09 06:22:05;;;;;;;12.38;4.78;;;;;;;1.77;33.61;100208.06;4863908;29;20059;-73
2022/03/09 06:24:29;;;;;;;9.05;4.45;;;;;;;2.06;33.75;100209.00;4861411;29;20053;-73
2022/03/09 06:26:56;;;;;;;9.65;4.43;;;;;;;2.29;33.45;100209.22;4845531;29;20100;-74
2022/03/09 06:29:21;;;;;;;9.23;5.18;;;;;;;2.72;32.47;100208.81;4861185;29;20049;-75
2022/03/09 06:31:46;;;;;;;8.65;4.68;;;;;;;3.20;32.22;100214.31;4877173;29;20067;-72
2022/03/09 06:34:11;;;;;;;12.75;5.72;;;;;;;3.72;31.40;100220.50;4862569;29;20404;-73
2022/03/09 06:36:36;;;;;;;9.20;4.75;;;;;;;4.17;31.41;100212.75;4868777;29;20071;-73
2022/03/09 06:39:01;;;;;;;9.82;5.05;;;;;;;4.48;30.81;100214.25;4866962;29;20080;-70
2022/03/09 06:41:26;;;;;;;11.10;4.60;;;;;;;4.83;30.64;100215.53;4864891;29;20128;-73
2022/03/09 06:43:51;;;;;;;13.18;5.80;;;;;;;5.24;30.55;100209.47;4862493;29;20115;-71
2022/03/09 06:46:16;;;;;;;12.63;6.30;;;;;;;5.80;29.60;100211.53;4861716;29;20415;-72
2022/03/09 06:48:41;;;;;;;10.43;5.40;;;;;;;6.38;28.95;100215.16;4860973;29;20123;-73
2022/03/09 06:51:06;;;;;;;12.93;5.78;;;;;;;7.03;28.53;100210.34;4862093;29;20204;-72
2022/03/09 06:53:31;;;;;;;8.52;4.95;;;;;;;7.73;27.96;100213.03;4862316;29;20044;-71
2022/03/09 06:55:56;;;;;;;12.88;6.05;;;;;;;8.30;26.78;100214.47;4860653;29;20416;-73
2022/03/09 06:58:20;;;;;;;12.35;6.05;;;;;;;8.92;27.25;100210.22;4860910;29;20409;-72
2022/03/09 07:00:45;;;;;;;13.68;6.88;;;;;;;9.39;26.60;100215.53;4876353;29;20052;-73
2022/03/09 07:03:10;;;;;;;21.20;6.20;;;;;;;9.23;26.06;100221.81;4861445;29;20115;-71
2022/03/09 07:05:35;;;;;;;18.02;6.00;;;;;;;8.89;26.02;100218.41;4876389;29;20056;-72
2022/03/09 07:08:00;;;;;;;10.18;5.82;;;;;;;8.88;25.74;100215.81;4861958;29;20040;-73
2022/03/09 07:10:26;;;;;;;11.35;5.95;;;;;;;8.92;25.70;100212.88;4861837;29;20419;-71
2022/03/09 07:12:50;;;;;;;7.43;4.93;;;;;;;9.03;25.77;100210.47;4882930;29;20562;-70
2022/03/09 07:15:16;;;;;;;12.40;5.50;;;;;;;9.03;25.28;100205.16;4880703;29;20063;-71
2022/03/09 07:17:41;;;;;;;8.55;4.97;;;;;;;9.14;25.37;100209.06;4869432;29;20045;-70
2022/03/09 07:20:07;;;;;;;9.25;5.55;;;;;;;9.27;24.67;100210.03;4892056;29;20048;-70
2022/03/09 07:22:32;;;;;;;10.65;5.57;;;;;;;9.51;24.64;100208.63;4862139;29;20136;-73
2022/03/09 07:24:57;;;;;;;12.23;6.88;;;;;;;10.06;24.30;100216.03;4860439;29;20510;-74
2022/03/09 07:27:21;;;;;;;11.75;6.22;;;;;;;10.59;24.02;100203.94;4860336;29;20438;-74
2022/03/09 07:29:46;;;;;;;8.98;4.57;;;;;;;10.95;23.33;100209.56;4844532;29;20428;-74
2022/03/09 07:32:14;;;;;;;6.93;4.68;;;;;;;10.97;23.12;100213.00;4861350;29;20044;-75
2022/03/09 07:34:38;;;;;;;12.75;5.38;;;;;;;11.13;22.98;100221.75;4861498;29;20135;-75
2022/03/09 07:37:03;;;;;;;10.75;5.72;;;;;;;11.11;22.72;100217.47;4876015;29;20084;-76
2022/03/09 07:39:29;;;;;;;5.90;4.03;;;;;;;11.00;22.28;100211.97;4883593;29;20052;-75
2022/03/09 07:41:55;;;;;;;5.35;4.10;;;;;;;10.88;22.17;100200.25;4884331;29;20063;-73
2022/03/09 07:44:20;;;;;;;6.05;4.50;;;;;;;10.70;21.96;100206.78;4873087;29;20104;-74
2022/03/09 07:46:45;;;;;;;5.90;4.22;;;;;;;10.84;22.26;100206.75;4861005;29;20059;-74
2022/03/09 07:49:10;;;;;;;6.43;4.25;;;;;;;11.17;21.55;100215.25;4861395;29;20044;-75
2022/03/09 07:51:35;;;;;;;6.53;3.75;;;;;;;10.95;20.68;100216.75;4859676;29;20049;-75
2022/03/09 07:54:00;;;;;;;5.85;3.92;;;;;;;10.84;20.73;100222.75;4861703;29;20112;-75
2022/03/09 07:56:25;;;;;;;5.38;3.38;;;;;;;11.01;21.84;100211.88;4867271;29;20523;-75
2022/03/09 07:58:50;;;;;;;6.75;4.75;;;;;;;10.46;20.70;100226.00;4877882;29;20045;-75
2022/03/09 08:01:14;;;;;;;10.18;5.45;;;;;;;11.05;20.32;100217.88;4895063;29;20060;-73
2022/03/09 08:03:39;;;;;;;7.53;4.15;;;;;;;11.40;19.69;100223.59;4849042;29;20044;-73
2022/03/09 08:06:05;;;;;;;6.78;4.30;;;;;;;10.91;18.50;100222.28;4887741;29;20097;-72
2022/03/09 08:08:30;;;;;;;10.30;5.10;;;;;;;11.40;18.78;100215.59;4881197;29;20067;-75
2022/03/09 08:10:55;;;;;;;8.75;4.93;;;;;;;12.36;18.91;100229.50;4878396;29;20048;-74
2022/03/09 08:13:21;;;;;;;7.75;5.47;;;;;;;12.58;18.19;100226.16;4868811;29;20044;-74
2022/03/09 08:15:46;;;;;;;8.05;4.40;;;;;;;12.69;18.30;100218.25;4884197;29;20054;-74
2022/03/09 08:18:11;;;;;;;5.03;4.45;;;;;;;12.99;18.09;100220.53;4884234;29;20044;-74
2022/03/09 08:20:36;;;;;;;8.05;4.47;;;;;;;13.53;17.71;100216.66;4870256;29;20059;-74
2022/03/09 08:23:01;;;;;;;8.60;4.80;;;;;;;13.77;17.54;100221.00;4865209;29;20052;-74
2022/03/09 08:25:26;;;;;;;8.38;4.65;;;;;;;14.13;17.31;100220.00;4865988;29;20139;-73
2022/03/09 08:27:51;;;;;;;8.27;4.88;;;;;;;14.43;16.99;100224.88;4866476;29;20040;-73
2022/03/09 08:30:16;;;;;;;9.63;4.57;;;;;;;14.63;17.11;100228.69;4863129;29;20060;-74
2022/03/09 08:32:41;;;;;;;6.28;4.30;;;;;;;14.98;16.30;100220.50;4864482;29;20107;-73
2022/03/09 08:35:07;;;;;;;6.55;4.32;;;;;;;15.01;16.08;100222.09;4871541;29;20071;-72
2022/03/09 08:37:31;;;;;;;7.80;4.55;;;;;;;15.44;15.94;100231.03;4874997;29;20048;-72
2022/03/09 08:39:56;;;;;;;7.53;4.43;;;;;;;15.67;15.69;100214.88;4876128;29;20243;-76
2022/03/09 08:42:21;;;;;;;7.00;4.53;;;;;;;16.13;15.64;100218.09;4878882;29;20530;-76
2022/03/09 08:44:46;;;;;;;7.65;4.25;;;;;;;16.69;15.01;100220.44;4865858;29;20105;-75
2022/03/09 08:47:10;;;;;;;8.30;4.85;;;;;;;16.87;14.49;100229.56;4869454;29;20130;-75
2022/03/09 08:49:39;;;;;;;4.53;3.92;;;;;;;17.42;14.44;100228.16;4869628;29;20059;-76
2022/03/09 08:52:04;;;;;;;8.23;4.80;;;;;;;17.14;14.38;100225.41;4864386;29;20393;-76
2022/03/09 08:54:29;;;;;;;6.47;4.30;;;;;;;16.94;14.34;100230.72;4864233;29;20075;-77
2022/03/09 08:56:53;;;;;;;4.13;3.50;;;;;;;16.65;14.29;100229.75;4864172;29;20044;-76
2022/03/09 08:59:18;;;;;;;10.90;4.88;;;;;;;16.10;13.78;100234.47;4863186;29;20509;-77
2022/03/09 09:01:44;;;;;;;7.30;4.20;;;;;;;16.45;14.02;100228.75;4878288;29;20044;-78
2022/03/09 09:04:08;;;;;;;7.43;4.10;;;;;;;15.53;13.48;100242.84;4868140;29;20055;-76
2022/03/09 09:06:33;;;;;;;5.75;4.05;;;;;;;14.95;14.11;100249.41;4894123;29;20081;-76
2022/03/09 09:08:58;;;;;;;7.35;4.53;;;;;;;15.35;14.22;100252.44;4886727;29;20083;-77
2022/03/09 09:11:23;;;;;;;7.07;4.65;;;;;;;14.99;13.11;100249.06;4868631;29;20055;-77
2022/03/09 09:13:47;;;;;;;5.68;3.97;;;;;;;14.35;13.62;100261.28;4863064;29;20047;-76
2022/03/09 09:16:12;;;;;;;7.63;4.03;;;;;;;13.41;14.11;100259.44;4879298;29;20040;-73
2022/03/09 09:18:38;;;;;;;4.88;3.70;;;;;;;13.17;13.91;100250.50;4879675;29;20488;-73
2022/03/09 09:21:04;;;;;;;6.25;3.95;;;;;;;13.38;13.45;100259.66;4880477;29;20044;-75
2022/03/09 09:23:29;;;;;;;6.75;4.00;;;;;;;13.64;14.37;100249.69;4880613;29;20103;-73
2022/03/09 09:25:54;;;;;;;5.65;3.50;;;;;;;13.99;13.62;100252.41;4880755;29;20082;-74
2022/03/09 09:28:18;;;;;;;5.75;4.18;;;;;;;14.20;13.67;100260.66;4880126;29;20044;-75
2022/03/09 09:30:43;;;;;;;4.82;3.45;;;;;;;13.72;13.81;100268.72;4881196;29;20067;-73
2022/03/09 09:33:08;;;;;;;4.45;3.55;;;;;;;13.40;13.90;100262.22;4881899;29;20408;-78
2022/03/09 09:35:34;;;;;;;6.10;3.88;;;;;;;13.35;14.48;100267.91;4880548;29;20036;-75
2022/03/09 09:38:06;;;;;;;5.22;3.83;;;;;;;13.55;13.94;100257.53;4865053;29;20051;-75
2022/03/09 09:40:31;;;;;;;21.17;6.07;;;;;;;13.36;13.29;100261.59;4880173;29;20146;-77
2022/03/09 09:42:56;;;;;;;5.40;3.78;;;;;;;13.00;13.88;100258.84;4859486;29;20127;-76
2022/03/09 09:45:21;;;;;;;4.55;3.60;;;;;;;13.60;14.50;100263.44;4845644;29;20067;-76
2022/03/09 09:47:46;;;;;;;8.63;4.47;;;;;;;14.29;14.88;100261.75;4860842;29;20041;-77
2022/03/09 09:50:13;;;;;;;7.63;4.10;;;;;;;14.74;14.38;100268.09;4862764;29;20404;-77
2022/03/09 09:52:40;;;;;;;6.38;3.88;;;;;;;14.60;14.28;100269.16;4881302;29;20127;-76
2022/03/09 09:55:07;;;;;;;5.35;3.60;;;;;;;14.19;13.90;100269.66;4870956;29;20495;-76
2022/03/09 09:57:31;;;;;;;6.28;3.88;;;;;;;14.06;14.47;100269.72;4849841;29;20134;-74
2022/03/09 09:59:57;;;;;;;6.25;3.75;;;;;;;13.99;14.06;100264.97;4880205;29;20246;-75
2022/03/09 10:02:22;;;;;;;6.70;4.05;;;;;;;13.66;14.28;100265.63;4880910;29;20044;-75
2022/03/09 10:04:47;;;;;;;6.40;3.83;;;;;;;12.96;14.48;100260.06;4871306;29;20052;-75
2022/03/09 10:07:12;;;;;;;4.15;3.60;;;;;;;12.29;14.61;100286.19;4897356;29;20043;-75
2022/03/09 10:09:41;;;;;;;5.05;3.50;;;;;;;12.18;15.28;100268.19;4870350;29;20040;-75
2022/03/09 10:12:08;;;;;;;6.32;4.05;;;;;;;12.45;14.95;100273.44;4847134;29;20510;-73
2022/03/09 10:14:53;;;;;;;5.95;3.72;;;;;;;12.63;14.10;100266.84;4860196;29;20100;-76
2022/03/09 10:17:26;;;;;;;7.75;4.60;;;;;;;11.64;14.88;100273.53;4870598;29;20056;-74
2022/03/09 10:19:54;;;;;;;8.95;4.75;;;;;;;10.69;15.35;100269.06;4893847;29;20040;-75
2022/03/09 10:22:22;;;;;;;7.70;3.30;;;;;;;10.60;16.53;100277.63;4893870;29;20099;-76
2022/03/09 10:24:47;;;;;;;7.07;3.88;;;;;;;10.05;16.16;100273.75;4893753;29;20052;-74
2022/03/09 10:27:11;;;;;;;7.25;3.80;;;;;;;9.78;16.37;100275.41;4885236;29;20047;-75
2022/03/09 10:29:36;;;;;;;6.45;2.25;;;;;;;9.04;16.00;100286.66;4864766;29;20110;-76
2022/03/09 10:32:01;;;;;;;10.50;4.30;;;;;;;6.49;16.96;100286.16;4848695;29;20059;-74
2022/03/09 10:34:27;;;;;;;8.30;4.40;;;;;;;4.18;19.07;100296.25;4879653;29;20079;-75
2022/03/09 10:37:04;;;;;;;6.50;3.88;;;;;;;2.73;20.70;100302.69;4881090;29;20593;-73
2022/03/09 10:39:46;;;;;;;6.50;3.97;;;;;;;1.53;21.85;100308.53;4863955;29;20135;-74
2022/03/09 10:42:31;;;;;;;6.38;3.60;;;;;;;0.90;23.10;100309.13;4880985;29;20052;-74
2022/03/09 10:44:57;;;;;;;6.32;3.42;;;;;;;0.41;23.72;100311.88;4881634;29;20075;-77
2022/03/09 10:47:29;;;;;;;6.53;3.83;;;;;;;0.11;23.71;100307.22;4881169;29;20040;-77
2022/03/09 10:50:06;;;;;;;8.02;3.90;;;;;;;-0.32;24.11;100322.81;4864262;29;20103;-75
2022/03/09 10:53:01;;;;;;;6.25;3.25;;;;;;;-0.71;24.65;100313.84;4848374;29;20355;-75
2022/03/09 10:55:28;;;;;;;6.95;3.20;;;;;;;-0.97;24.53;100328.16;4879375;29;20553;-76
2022/03/09 10:58:06;;;;;;;9.50;3.50;;;;;;;-1.16;24.79;100322.31;4879398;29;20056;-73
2022/03/09 11:00:38;;;;;;;7.00;3.33;;;;;;;-1.38;25.49;100325.22;4880595;29;20130;-77
2022/03/09 11:03:11;;;;;;;5.80;3.30;;;;;;;-1.66;25.34;100322.94;4880422;29;20048;-75
2022/03/09 11:05:58;;;;;;;6.70;2.70;;;;;;;-1.84;26.62;100320.53;4881142;29;20503;-77
2022/03/09 11:08:27;;;;;;;8.52;4.05;;;;;;;-1.98;26.46;100325.88;4880687;29;20096;-76
2022/03/09 11:10:55;;;;;;;4.72;2.30;;;;;;;-2.08;27.23;100324.25;4880826;29;20048;-74
2022/03/09 11:13:19;;;;;;;4.47;2.85;;;;;;;-2.14;26.95;100326.91;4879720;29;20054;-76
2022/03/09 11:15:47;;;;;;;6.53;2.83;;;;;;;-2.22;27.13;100323.50;4879470;29;20044;-75
2022/03/09 11:18:14;;;;;;;8.75;3.10;;;;;;;-2.28;26.89;100329.66;4879250;29;20047;-76
2022/03/09 11:20:39;;;;;;;6.38;3.40;;;;;;;-2.43;27.08;100332.38;4880645;29;20072;-77
2022/03/09 11:23:04;;;;;;;5.97;2.80;;;;;;;-2.54;27.71;100323.78;4880177;29;20103;-74